fontbureau.com alexa rank chart, fontbureau.com alexa rank daily changes

fontbureau.com alexa rank chart, fontbureau.com alexa rank daily changes

fontbureau.com
Actual rank:
581 363

RANK HISTORY

Date Rank Diff
2017/05/28 581 363 -441
2017/05/27 581 804 +10 266
2017/05/26 571 538 -2 598
2017/05/25 574 136 -2 299
2017/05/24 576 435 -3 640
2017/05/23 580 075 +22 626
2017/05/22 557 449 +19 597
2017/05/21 537 852 -570
2017/05/20 538 422 +76 353
2017/05/19 462 069 -18 278
2017/05/18 480 347 -24 378
2017/05/17 504 725 +14 114
2017/05/16 490 611 +55 867
2017/05/15 434 744 +20 671
2017/05/14 414 073 -2 873
2017/05/13 416 946 +4 000
2017/05/12 412 946 -7 962
2017/05/11 420 908 +48 953
2017/05/10 371 955 +6 040
2017/05/09 365 915 +11 657
2017/05/08 354 258 +6 333
2017/05/07 347 925 +12 706
2017/05/06 335 219 +6 510
2017/05/05 328 709 -4 048
2017/05/04 332 757 +6 854
2017/05/03 325 903 +81 231
2017/05/02 244 672 -620
2017/05/01 245 292 -5 340
2017/04/30 250 632 -2 400
2017/04/29 253 032 +710
2017/04/28 252 322 +2 304
2017/04/27 250 018 -2 441
2017/04/26 252 459 +2 750
2017/04/25 249 709 +510
2017/04/24 249 199 -39
2017/04/23 249 238 +6 670
2017/04/22 242 568 +6 140
2017/04/21 236 428 -1 114
2017/04/20 237 542 -10 634
2017/04/19 248 176 +983
2017/04/18 247 193 +692
2017/04/17 246 501 -3 453
2017/04/16 249 954 -15 490
2017/04/15 265 444 -7 423
2017/04/14 272 867 +2 996
2017/04/13 269 871 -4 008
2017/04/12 273 879 +4 448
2017/04/11 269 431 -21 367
2017/04/10 290 798 -1 519
2017/04/09 292 317 -2 527
2017/04/08 294 844 -6 239
2017/04/07 301 083 +13 807
2017/04/06 287 276 -3 764
2017/04/05 291 040 +3 100
2017/04/04 287 940 +13 229
2017/04/03 274 711 -79 779
2017/04/02 354 490 +14 495
2017/04/01 339 995 +4 876
2017/03/31 335 119 +8 175
2017/03/30 326 944 +9 185
2017/03/29 317 759

WIDGET FOR YOUR SITE

DOMAINS WITH THE NEAREST RANK

Domain Rank
dailydota2.com 581 358
infoisinfo-ph.com 581 359
softscience.com 581 360
karaage.ne.jp 581 361
howtosmile.org 581 362
fontbureau.com 581 363
azurespeed.com 581 364
americanshakespearecenter.com 581 365
gkvedu.com 581 366
nicebjvids.tumblr.com 581 367
unidu.hr 581 368

DOMAINS WITH THE NEAREST RANK BY TLD .com

Domain Rank
helloenvoy.com 581 355
numakos.com 581 357
dailydota2.com 581 358
infoisinfo-ph.com 581 359
softscience.com 581 360
fontbureau.com 581 363
azurespeed.com 581 364
americanshakespearecenter.com 581 365
gkvedu.com 581 366
muku-flooring.com 581 369
grannyhd.com 581 372